Time;durP1;ratioP1;P1;durP2;ratioP2;P2;SDS_P1;SDS_P2;PMS_P1;PMS_P2;Temp;Humidity;BMP_temperature;BMP_pressure;BME280_temperature;BME280_humidity;BME280_pressure;Samples;Min_cycle;Max_cycle;Signal;HPM_P1;HPM_P2
2021/09/24 00:01:02;;;;;;;;;;;;;;;10.88;74.08;101450.91;1790248;79;20233;-75
2021/09/24 00:03:34;;;;;;;;;;;;;;;10.84;74.06;101447.77;1789241;79;20227;-75
2021/09/24 00:06:06;;;;;;;;;;;;;;;10.81;74.15;101439.91;1790622;79;20142;-76
2021/09/24 00:08:38;;;;;;;;;;;;;;;10.79;74.21;101444.88;1787787;79;20368;-80
2021/09/24 00:11:11;;;;;;;;;;;;;;;10.83;74.42;101448.84;1785902;80;20206;-78
2021/09/24 00:13:44;;;;;;;;;;;;;;;10.84;74.33;101445.00;1785061;80;20654;-84
2021/09/24 00:16:16;;;;;;;;;;;;;;;10.84;74.41;101439.97;1784687;80;20293;-83
2021/09/24 00:18:48;;;;;;;;;;;;;;;10.91;74.46;101438.77;1785285;79;20258;-78
2021/09/24 00:21:21;;;;;;;;;;;;;;;10.97;74.41;101430.84;1786556;80;20274;-81
2021/09/24 00:23:54;;;;;;;;;;;;;;;11.00;74.42;101432.28;1785787;80;20195;-79
2021/09/24 00:26:25;;;;;;;;;;;;;;;11.03;74.43;101427.61;1784942;80;20297;-75
2021/09/24 00:28:58;;;;;;;;;;;;;;;11.10;74.51;101433.34;1785920;79;20202;-79
2021/09/24 00:31:29;;;;;;;;;;;;;;;11.21;74.57;101432.47;1784381;80;20262;-79
2021/09/24 00:34:03;;;;;;;;;;;;;;;11.35;74.75;101421.34;1754642;82;20264;-80
2021/09/24 00:36:35;;;;;;;;;;;;;;;11.51;74.45;101419.17;1774530;80;20598;-80
2021/09/24 00:39:08;;;;;;;;;;;;;;;11.60;74.00;101420.47;1784012;80;20258;-83
2021/09/24 00:41:40;;;;;;;;;;;;;;;11.75;74.14;101416.57;1784013;80;20536;-80
2021/09/24 00:44:11;;;;;;;;;;;;;;;11.90;73.25;101411.30;1784064;80;20189;-79
2021/09/24 00:46:43;;;;;;;;;;;;;;;11.95;72.39;101410.53;1783950;79;20187;-78
2021/09/24 00:49:18;;;;;;;;;;;;;;;11.98;72.63;101405.88;1773648;79;20247;-75
2021/09/24 00:51:50;;;;;;;;;;;;;;;12.10;72.67;101407.46;1770242;81;20226;-78
2021/09/24 00:54:22;;;;;;;;;;;;;;;12.25;71.65;101397.98;1770286;81;20251;-78
2021/09/24 00:56:54;;;;;;;;;;;;;;;12.28;70.72;101394.67;1771824;81;20227;-78
2021/09/24 00:59:26;;;;;;;;;;;;;;;12.24;70.33;101399.63;1771852;81;20258;-78
2021/09/24 01:01:58;;;;;;;;;;;;;;;12.19;70.09;101404.56;1771820;81;20195;-79
2021/09/24 01:04:30;;;;;;;;;;;;;;;12.17;70.01;101405.34;1770623;81;20202;-79
2021/09/24 01:07:03;;;;;;;;;;;;;;;12.12;69.84;101401.11;1774717;81;20266;-78
2021/09/24 01:09:35;;;;;;;;;;;;;;;12.06;70.31;101400.73;1775778;81;20278;-80
2021/09/24 01:12:08;;;;;;;;;;;;;;;12.06;70.66;101403.52;1773658;80;20528;-82
2021/09/24 01:14:40;;;;;;;;;;;;;;;12.12;70.80;101392.77;1774659;81;20198;-81
2021/09/24 01:17:12;;;;;;;;;;;;;;;12.20;70.75;101391.47;1771365;81;20247;-80
2021/09/24 01:19:44;;;;;;;;;;;;;;;12.26;70.65;101394.62;1770730;81;20267;-80
2021/09/24 01:22:17;;;;;;;;;;;;;;;12.30;70.39;101393.86;1770596;81;20563;-80
2021/09/24 01:24:49;;;;;;;;;;;;;;;12.33;69.94;101394.76;1770476;80;20179;-78
2021/09/24 01:27:20;;;;;;;;;;;;;;;12.30;69.89;101393.03;1771546;81;20294;-80
2021/09/24 01:29:55;;;;;;;;;;;;;;;12.27;69.87;101390.74;1770847;81;20600;-75
2021/09/24 01:32:26;;;;;;;;;;;;;;;12.22;70.09;101388.73;1770936;81;20540;-79
2021/09/24 01:35:00;;;;;;;;;;;;;;;12.27;70.63;101379.61;1771644;81;20654;-83
2021/09/24 01:37:33;;;;;;;;;;;;;;;12.33;70.24;101380.83;1771692;81;20631;-79
2021/09/24 01:40:10;;;;;;;;;;;;;;;12.37;70.39;101371.42;1770262;80;20303;-80
2021/09/24 01:42:43;;;;;;;;;;;;;;;12.45;70.37;101364.86;1770920;81;20628;-80
2021/09/24 01:45:14;;;;;;;;;;;;;;;12.54;70.07;101356.34;1771191;81;20218;-82
2021/09/24 01:47:46;;;;;;;;;;;;;;;12.59;69.58;101354.20;1771613;79;20262;-81
2021/09/24 01:50:21;;;;;;;;;;;;;;;12.59;69.75;101346.67;1789627;79;20284;-82
2021/09/24 01:52:54;;;;;;;;;;;;;;;12.66;69.81;101348.71;1807861;79;20185;-81
2021/09/24 01:55:26;;;;;;;;;;;;;;;12.68;69.17;101352.64;1807962;79;20337;-80
2021/09/24 01:57:58;;;;;;;;;;;;;;;12.61;68.98;101348.67;1807175;79;20538;-78
2021/09/24 02:00:30;;;;;;;;;;;;;;;12.55;69.09;101352.48;1806588;79;20173;-81
2021/09/24 02:03:02;;;;;;;;;;;;;;;12.49;69.47;101349.34;1807865;79;20185;-83
2021/09/24 02:05:34;;;;;;;;;;;;;;;12.45;69.44;101341.73;1806759;79;20245;-82
2021/09/24 02:08:06;;;;;;;;;;;;;;;12.37;69.61;101345.81;1807632;79;20535;-81
2021/09/24 02:10:39;;;;;;;;;;;;;;;12.31;69.89;101334.31;1807714;79;20580;-81
2021/09/24 02:13:11;;;;;;;;;;;;;;;12.32;70.10;101332.34;1807041;79;20170;-77
2021/09/24 02:15:43;;;;;;;;;;;;;;;12.30;70.07;101324.25;1806449;77;20546;-80
2021/09/24 02:18:14;;;;;;;;;;;;;;;12.29;70.16;101321.74;1807798;79;20257;-80
2021/09/24 02:20:47;;;;;;;;;;;;;;;12.28;70.13;101315.88;1806224;79;20534;-79
2021/09/24 02:23:19;;;;;;;;;;;;;;;12.31;70.28;101317.61;1806151;79;20249;-83
2021/09/24 02:25:51;;;;;;;;;;;;;;;12.33;70.00;101314.00;1805907;79;20178;-81
2021/09/24 02:28:22;;;;;;;;;;;;;;;12.30;70.07;101307.53;1806923;79;20622;-80
2021/09/24 02:30:54;;;;;;;;;;;;;;;12.25;70.04;101307.49;1805793;79;20253;-76
2021/09/24 02:33:26;;;;;;;;;;;;;;;12.25;70.22;101301.06;1807606;79;20277;-81
2021/09/24 02:35:58;;;;;;;;;;;;;;;12.24;70.41;101292.42;1807732;79;20253;-80
2021/09/24 02:38:29;;;;;;;;;;;;;;;12.21;70.38;101289.60;1807507;79;20272;-75
2021/09/24 02:41:02;;;;;;;;;;;;;;;12.22;70.60;101287.11;1807655;79;20213;-76
2021/09/24 02:43:34;;;;;;;;;;;;;;;12.21;70.50;101280.39;1807295;79;20619;-74
2021/09/24 02:46:07;;;;;;;;;;;;;;;12.18;71.01;101271.18;1806793;79;20186;-75
2021/09/24 02:48:40;;;;;;;;;;;;;;;12.21;70.80;101266.48;1805911;79;20214;-79
2021/09/24 02:51:11;;;;;;;;;;;;;;;12.25;70.85;101262.09;1755802;77;20688;-79
2021/09/24 02:53:44;;;;;;;;;;;;;;;12.28;71.04;101260.20;1722432;83;20585;-75
2021/09/24 02:56:17;;;;;;;;;;;;;;;12.33;70.41;101256.92;1723801;83;20195;-75
2021/09/24 02:58:48;;;;;;;;;;;;;;;12.26;69.88;101252.09;1723372;83;20625;-77
2021/09/24 03:01:21;;;;;;;;;;;;;;;12.15;69.77;101262.79;1722784;81;20260;-73
2021/09/24 03:03:56;;;;;;;;;;;;;;;12.03;69.92;101258.41;1686095;85;20645;-73
2021/09/24 03:06:29;;;;;;;;;;;;;;;11.92;70.11;101257.44;1696095;85;20264;-74
2021/09/24 03:09:04;;;;;;;;;;;;;;;11.81;70.28;101252.80;1656034;87;20333;-74
2021/09/24 03:11:37;;;;;;;;;;;;;;;11.70;70.55;101264.04;1672825;84;20276;-79
2021/09/24 03:14:08;;;;;;;;;;;;;;;11.58;70.79;101264.14;1682032;84;20241;-81
2021/09/24 03:16:42;;;;;;;;;;;;;;;11.51;71.12;101263.44;1667608;85;20232;-79
2021/09/24 03:19:19;;;;;;;;;;;;;;;11.47;71.33;101253.05;1667696;85;20219;-81
2021/09/24 03:21:49;;;;;;;;;;;;;;;11.39;71.51;101252.95;1663777;85;20600;-80
2021/09/24 03:24:21;;;;;;;;;;;;;;;11.28;71.76;101255.25;1667846;86;20289;-79
2021/09/24 03:26:54;;;;;;;;;;;;;;;11.19;72.05;101255.91;1667877;85;20220;-79
2021/09/24 03:29:25;;;;;;;;;;;;;;;11.12;72.31;101251.06;1668036;86;20272;-79
2021/09/24 03:31:57;;;;;;;;;;;;;;;11.05;72.53;101247.05;1671892;85;20201;-81
2021/09/24 03:34:32;;;;;;;;;;;;;;;10.98;72.75;101245.50;1666838;85;20592;-76
2021/09/24 03:37:04;;;;;;;;;;;;;;;10.91;73.03;101238.73;1695959;83;20614;-75
2021/09/24 03:39:35;;;;;;;;;;;;;;;10.84;73.25;101227.47;1686162;84;20643;-76
2021/09/24 03:42:07;;;;;;;;;;;;;;;10.79;73.47;101223.20;1695717;85;20290;-75
2021/09/24 03:44:40;;;;;;;;;;;;;;;10.75;73.64;101221.47;1657048;87;20686;-75
2021/09/24 03:47:12;;;;;;;;;;;;;;;10.73;73.77;101221.41;1685637;85;20358;-74
2021/09/24 03:49:46;;;;;;;;;;;;;;;10.74;74.68;101220.32;1633029;87;20192;-76
2021/09/24 03:52:17;;;;;;;;;;;;;;;10.90;75.91;101213.41;1660705;85;20260;-73
2021/09/24 03:54:50;;;;;;;;;;;;;;;11.12;76.66;101213.55;1712429;83;20192;-76
2021/09/24 03:57:21;;;;;;;;;;;;;;;11.40;76.82;101222.66;1714097;84;20645;-76
2021/09/24 03:59:55;;;;;;;;;;;;;;;11.58;76.23;101232.16;1714115;84;20256;-73
2021/09/24 04:02:27;;;;;;;;;;;;;;;11.82;76.78;101228.62;1706540;83;20271;-73
2021/09/24 04:04:59;;;;;;;;;;;;;;;12.02;75.30;101236.72;1740765;80;20263;-80
2021/09/24 04:07:31;;;;;;;;;;;;;;;12.16;75.36;101232.45;1783470;79;20187;-78
2021/09/24 04:10:04;;;;;;;;;;;;;;;12.35;75.92;101233.82;1781738;79;20191;-77
2021/09/24 04:12:36;;;;;;;;;;;;;;;12.60;76.36;101234.13;1781544;80;20231;-77
2021/09/24 04:15:12;;;;;;;;;;;;;;;12.83;74.29;101231.06;1779593;80;20560;-76
2021/09/24 04:17:46;;;;;;;;;;;;;;;12.83;70.93;101225.48;1782039;80;20282;-76
2021/09/24 04:20:20;;;;;;;;;;;;;;;12.66;69.40;101221.13;1777295;80;20196;-83
2021/09/24 04:22:53;;;;;;;;;;;;;;;12.43;68.66;101217.22;1753105;80;20234;-87
2021/09/24 04:25:26;;;;;;;;;;;;;;;12.21;68.45;101210.26;1780094;80;20251;-83
2021/09/24 04:27:58;;;;;;;;;;;;;;;12.03;68.62;101213.34;1776234;80;20662;-80
2021/09/24 04:30:29;;;;;;;;;;;;;;;11.90;68.58;101213.72;1774584;80;20196;-84
2021/09/24 04:33:01;;;;;;;;;;;;;;;11.83;68.76;101203.87;1778265;80;20187;-77
2021/09/24 04:35:32;;;;;;;;;;;;;;;11.77;68.88;101207.14;1781628;79;20259;-77
2021/09/24 04:38:04;;;;;;;;;;;;;;;11.81;70.45;101206.08;1782034;79;20635;-76
2021/09/24 04:40:36;;;;;;;;;;;;;;;11.96;72.57;101200.18;1783746;80;20251;-76
2021/09/24 04:43:08;;;;;;;;;;;;;;;12.32;73.04;101198.69;1784906;80;20525;-74
2021/09/24 04:45:40;;;;;;;;;;;;;;;12.60;72.97;101206.27;1782464;80;20184;-78
2021/09/24 04:48:11;;;;;;;;;;;;;;;12.85;71.48;101204.33;1781541;80;20243;-73
2021/09/24 04:50:43;;;;;;;;;;;;;;;13.01;70.35;101204.81;1779676;80;20314;-77
2021/09/24 04:53:16;;;;;;;;;;;;;;;13.09;70.64;101191.20;1780447;80;20591;-73
2021/09/24 04:55:47;;;;;;;;;;;;;;;13.35;72.79;101184.77;1773054;80;20739;-75
2021/09/24 04:58:18;;;;;;;;;;;;;;;13.66;70.76;101180.23;1781494;80;20223;-74
2021/09/24 05:00:50;;;;;;;;;;;;;;;13.83;69.66;101184.56;1778759;80;20194;-73
2021/09/24 05:03:23;;;;;;;;;;;;;;;13.90;67.79;101180.97;1781677;80;20311;-73
2021/09/24 05:05:56;;;;;;;;;;;;;;;13.81;65.54;101183.97;1781025;80;20307;-75
2021/09/24 05:08:29;;;;;;;;;;;;;;;13.62;66.13;101187.48;1782025;80;20207;-73
2021/09/24 05:11:02;;;;;;;;;;;;;;;13.58;67.05;101189.94;1782213;80;20183;-86
2021/09/24 05:13:34;;;;;;;;;;;;;;;13.63;66.86;101189.98;1782291;80;20191;-74
2021/09/24 05:16:06;;;;;;;;;;;;;;;13.69;66.99;101190.88;1782143;80;20663;-73
2021/09/24 05:18:38;;;;;;;;;;;;;;;13.72;66.18;101187.53;1782134;80;20215;-76
2021/09/24 05:21:10;;;;;;;;;;;;;;;13.69;66.53;101186.13;1782122;80;20218;-77
2021/09/24 05:23:42;;;;;;;;;;;;;;;13.74;65.64;101176.39;1772357;80;20286;-77
2021/09/24 05:26:15;;;;;;;;;;;;;;;13.75;66.12;101178.64;1781867;80;20190;-76
2021/09/24 05:28:49;;;;;;;;;;;;;;;13.77;65.97;101168.89;1781931;80;20183;-76
2021/09/24 05:31:20;;;;;;;;;;;;;;;13.85;65.83;101176.74;1782013;80;20184;-78
2021/09/24 05:33:52;;;;;;;;;;;;;;;13.84;65.61;101176.47;1782107;80;20254;-77
2021/09/24 05:36:24;;;;;;;;;;;;;;;13.81;65.93;101175.59;1782101;80;20556;-79
2021/09/24 05:38:56;;;;;;;;;;;;;;;13.89;65.69;101182.63;1782075;80;20286;-79
2021/09/24 05:41:28;;;;;;;;;;;;;;;13.96;65.66;101172.05;1781928;80;20544;-76
2021/09/24 05:44:00;;;;;;;;;;;;;;;14.09;65.56;101169.63;1782172;80;20206;-77
2021/09/24 05:46:32;;;;;;;;;;;;;;;14.15;65.05;101174.11;1782077;80;20334;-77
2021/09/24 05:49:04;;;;;;;;;;;;;;;14.24;64.64;101175.30;1782312;80;20186;-78
2021/09/24 05:51:37;;;;;;;;;;;;;;;14.22;64.25;101175.28;1782289;80;20240;-78
2021/09/24 05:54:09;;;;;;;;;;;;;;;14.21;64.42;101191.22;1782330;80;20187;-78
2021/09/24 05:56:40;;;;;;;;;;;;;;;14.24;65.12;101194.84;1782156;80;20210;-78
2021/09/24 05:59:15;;;;;;;;;;;;;;;14.39;64.55;101194.08;1782192;80;20623;-79
2021/09/24 06:01:48;;;;;;;;;;;;;;;14.42;64.01;101190.75;1782105;80;20579;-78
2021/09/24 06:04:24;;;;;;;;;;;;;;;14.50;64.42;101187.42;1782111;80;20179;-78
2021/09/24 06:06:56;;;;;;;;;;;;;;;14.59;63.83;101184.36;1764009;80;20208;-79
2021/09/24 06:09:32;;;;;;;;;;;;;;;14.63;63.17;101182.16;1755286;81;20211;-77
2021/09/24 06:12:13;;;;;;;;;;;;;;;14.57;62.94;101178.22;1784239;80;20194;-78
2021/09/24 06:14:46;;;;;;;;;;;;;;;14.56;63.10;101173.75;1784217;80;20595;-79
2021/09/24 06:17:18;;;;;;;;;;;;;;;14.64;63.23;101177.39;1784372;80;20191;-77
2021/09/24 06:19:51;;;;;;;;;;;;;;;14.72;63.30;101172.11;1784308;80;20628;-76
2021/09/24 06:22:26;;;;;;;;;;;;;;;14.87;63.16;101180.55;1784218;80;20238;-76
2021/09/24 06:24:59;;;;;;;;;;;;;;;14.99;62.81;101171.33;1784374;80;20189;-75
2021/09/24 06:27:31;;;;;;;;;;;;;;;15.11;62.04;101180.30;1784073;80;20603;-75
2021/09/24 06:30:03;;;;;;;;;;;;;;;15.12;61.38;101173.58;1784384;80;20306;-77
2021/09/24 06:32:34;;;;;;;;;;;;;;;15.02;61.07;101181.95;1784420;80;20195;-76
2021/09/24 06:35:07;;;;;;;;;;;;;;;14.95;61.49;101184.73;1784309;80;20296;-77
2021/09/24 06:37:39;;;;;;;;;;;;;;;14.96;61.62;101187.83;1784259;80;20301;-77
2021/09/24 06:40:12;;;;;;;;;;;;;;;14.98;61.51;101192.58;1784311;80;20188;-77
2021/09/24 06:42:44;;;;;;;;;;;;;;;15.04;61.51;101202.08;1784229;80;20607;-76
2021/09/24 06:45:15;;;;;;;;;;;;;;;15.14;60.90;101198.45;1784465;80;20219;-77
2021/09/24 06:47:47;;;;;;;;;;;;;;;15.12;60.26;101193.16;1766648;77;20186;-77
2021/09/24 06:50:21;;;;;;;;;;;;;;;15.03;60.51;101183.63;1722219;83;20261;-78
2021/09/24 06:52:54;;;;;;;;;;;;;;;15.03;60.68;101180.00;1722313;83;20253;-78
2021/09/24 06:55:25;;;;;;;;;;;;;;;15.01;60.48;101169.09;1722111;83;20641;-76
2021/09/24 06:57:57;;;;;;;;;;;;;;;14.99;60.67;101163.48;1722078;83;20265;-78
2021/09/24 07:00:31;;;;;;;;;;;;;;;15.04;60.81;101160.70;1692720;83;20197;-77
2021/09/24 07:03:03;;;;;;;;;;;;;;;15.20;60.58;101159.03;1722134;83;20190;-76
2021/09/24 07:05:36;;;;;;;;;;;;;;;15.33;60.20;101138.91;1722204;83;20261;-77
2021/09/24 07:08:07;;;;;;;;;;;;;;;15.43;60.17;101134.71;1722111;83;20254;-78
2021/09/24 07:10:39;;;;;;;;;;;;;;;15.58;59.83;101129.08;1722029;83;20313;-79
2021/09/24 07:13:11;;;;;;;;;;;;;;;15.80;59.06;101139.95;1722130;83;20258;-78
2021/09/24 07:15:44;;;;;;;;;;;;;;;15.92;58.52;101118.92;1722140;83;20312;-78
2021/09/24 07:18:17;;;;;;;;;;;;;;;15.96;57.93;101106.58;1737716;80;20312;-76
2021/09/24 07:20:49;;;;;;;;;;;;;;;15.94;57.74;101103.23;1744283;82;20562;-77
2021/09/24 07:23:24;;;;;;;;;;;;;;;16.01;57.73;101106.56;1743733;82;20590;-78
2021/09/24 07:25:56;;;;;;;;;;;;;;;16.19;57.38;101106.75;1743771;82;20189;-77
2021/09/24 07:28:28;;;;;;;;;;;;;;;16.42;57.16;101094.89;1744960;82;20281;-78
2021/09/24 07:30:59;;;;;;;;;;;;;;;16.61;56.44;101090.28;1745529;82;20178;-78
2021/09/24 07:33:32;;;;;;;;;;;;;;;16.78;55.88;101080.91;1744312;82;20333;-78
2021/09/24 07:36:04;;;;;;;;;;;;;;;16.87;55.14;101064.56;1745333;82;20210;-78
2021/09/24 07:38:36;;;;;;;;;;;;;;;16.90;54.93;101052.77;1744111;82;20254;-77
2021/09/24 07:41:08;;;;;;;;;;;;;;;16.99;54.54;101049.59;1743725;82;20609;-78
2021/09/24 07:43:40;;;;;;;;;;;;;;;17.11;54.07;101041.63;1743982;82;20182;-77
2021/09/24 07:46:14;;;;;;;;;;;;;;;17.17;53.38;101023.61;1721114;82;20285;-78
2021/09/24 07:48:47;;;;;;;;;;;;;;;17.25;53.16;101022.95;1743814;82;20610;-78
2021/09/24 07:51:19;;;;;;;;;;;;;;;17.34;52.97;101011.36;1744059;82;20254;-78
2021/09/24 07:53:51;;;;;;;;;;;;;;;17.41;52.29;101005.41;1743906;82;20261;-76
2021/09/24 07:56:24;;;;;;;;;;;;;;;17.48;52.21;101003.08;1743895;82;20246;-78
2021/09/24 07:58:56;;;;;;;;;;;;;;;17.59;51.88;100997.61;1743821;82;20546;-76
2021/09/24 08:01:28;;;;;;;;;;;;;;;17.68;51.14;101000.86;1743988;82;20250;-76
2021/09/24 08:04:00;;;;;;;;;;;;;;;17.76;50.73;101002.18;1743959;82;20182;-77
2021/09/24 08:06:31;;;;;;;;;;;;;;;17.81;50.50;100997.91;1743949;82;20186;-76
2021/09/24 08:09:04;;;;;;;;;;;;;;;17.84;50.35;100996.73;1720947;82;20253;-76
2021/09/24 08:11:36;;;;;;;;;;;;;;;17.88;49.85;100989.94;1743874;82;20190;-77
2021/09/24 08:14:07;;;;;;;;;;;;;;;17.91;49.73;100991.58;1743926;82;20595;-77
2021/09/24 08:16:39;;;;;;;;;;;;;;;17.91;49.31;100981.73;1743967;82;20599;-77
2021/09/24 08:19:11;;;;;;;;;;;;;;;17.90;49.23;100974.45;1740768;82;20554;-78
2021/09/24 08:21:43;;;;;;;;;;;;;;;17.93;48.70;100971.61;1739698;82;20258;-77
2021/09/24 08:24:15;;;;;;;;;;;;;;;17.97;48.07;100974.06;1739762;82;20543;-77
2021/09/24 08:26:48;;;;;;;;;;;;;;;17.98;47.92;100971.55;1739614;82;20246;-78
2021/09/24 08:29:19;;;;;;;;;;;;;;;17.97;48.04;100975.47;1739753;82;20535;-77
2021/09/24 08:31:52;;;;;;;;;;;;;;;17.97;47.79;100967.04;1739684;82;20182;-77
2021/09/24 08:34:24;;;;;;;;;;;;;;;17.98;47.75;100958.90;1739848;82;20254;-77
2021/09/24 08:36:57;;;;;;;;;;;;;;;17.94;48.09;100960.08;1739759;82;20353;-78
2021/09/24 08:39:29;;;;;;;;;;;;;;;17.93;48.16;100957.56;1739759;82;20258;-77
2021/09/24 08:42:01;;;;;;;;;;;;;;;17.90;48.52;100956.19;1739769;82;20242;-77
2021/09/24 08:44:32;;;;;;;;;;;;;;;17.88;48.86;100958.48;1739721;82;20289;-77
2021/09/24 08:47:04;;;;;;;;;;;;;;;17.84;49.51;100957.40;1739763;82;20219;-78
2021/09/24 08:49:36;;;;;;;;;;;;;;;17.78;49.91;100945.11;1739832;82;20222;-77
2021/09/24 08:52:09;;;;;;;;;;;;;;;17.74;50.20;100934.23;1739897;82;20626;-76
2021/09/24 08:54:41;;;;;;;;;;;;;;;17.70;50.60;100928.94;1739682;82;20249;-76
2021/09/24 08:57:16;;;;;;;;;;;;;;;17.68;50.91;100921.39;1739842;82;20682;-77
2021/09/24 08:59:48;;;;;;;;;;;;;;;17.65;50.69;100923.39;1712614;82;20242;-76
2021/09/24 09:02:22;;;;;;;;;;;;;;;17.60;50.94;100923.45;1698820;83;20287;-76
2021/09/24 09:04:54;;;;;;;;;;;;;;;17.52;50.76;100917.11;1739851;82;20242;-76
2021/09/24 09:07:27;;;;;;;;;;;;;;;17.46;50.86;100912.70;1688582;82;20658;-76
2021/09/24 09:10:00;;;;;;;;;;;;;;;17.48;50.69;100907.60;1739712;82;20706;-76
2021/09/24 09:12:32;;;;;;;;;;;;;;;17.46;50.84;100915.50;1711401;82;20571;-76
2021/09/24 09:15:06;;;;;;;;;;;;;;;17.47;50.96;100898.92;1739591;82;20250;-77
2021/09/24 09:17:43;;;;;;;;;;;;;;;17.48;50.88;100888.80;1739660;82;20202;-77
2021/09/24 09:20:24;;;;;;;;;;;;;;;17.50;50.81;100882.30;1739769;82;20262;-77
2021/09/24 09:23:09;;;;;;;;;;;;;;;17.56;50.77;100881.09;1739727;82;20250;-78
2021/09/24 09:25:43;;;;;;;;;;;;;;;17.56;50.78;100874.66;1739785;82;20325;-77
2021/09/24 09:28:17;;;;;;;;;;;;;;;17.51;50.96;100867.70;1739727;82;20658;-78
2021/09/24 09:30:50;;;;;;;;;;;;;;;17.50;50.81;100869.66;1739294;82;20383;-78
2021/09/24 09:33:24;;;;;;;;;;;;;;;17.46;50.45;100867.77;1739735;82;20583;-78
2021/09/24 09:35:58;;;;;;;;;;;;;;;17.43;50.60;100864.17;1739663;82;20317;-76
2021/09/24 09:38:31;;;;;;;;;;;;;;;17.45;50.52;100862.74;1739763;82;20178;-76
2021/09/24 09:41:06;;;;;;;;;;;;;;;17.47;50.36;100855.39;1739678;82;20226;-78
2021/09/24 09:43:40;;;;;;;;;;;;;;;17.49;50.33;100854.55;1739678;82;20258;-77
2021/09/24 09:46:17;;;;;;;;;;;;;;;17.54;50.27;100853.89;1739565;82;20279;-76
2021/09/24 09:49:04;;;;;;;;;;;;;;;17.58;50.14;100863.39;1739780;82;20555;-77
2021/09/24 09:51:37;;;;;;;;;;;;;;;17.60;49.87;100861.11;1739838;82;20255;-77
2021/09/24 09:54:11;;;;;;;;;;;;;;;17.64;49.60;100852.91;1739719;82;20286;-76
2021/09/24 09:56:51;;;;;;;;;;;;;;;17.69;49.40;100853.66;1710472;82;20242;-78
2021/09/24 09:59:32;;;;;;;;;;;;;;;17.73;49.25;100846.30;1710774;82;20547;-77
2021/09/24 10:02:19;;;;;;;;;;;;;;;17.73;49.30;100849.70;1739703;82;20234;-76
2021/09/24 10:04:53;;;;;;;;;;;;;;;17.69;49.12;100849.44;1739791;82;20290;-77
2021/09/24 10:07:30;;;;;;;;;;;;;;;17.60;49.01;100847.62;1710752;82;20195;-76
2021/09/24 10:10:11;;;;;;;;;;;;;;;17.50;49.10;100840.77;1732891;82;20171;-76
2021/09/24 10:12:44;;;;;;;;;;;;;;;17.48;49.25;100836.00;1740814;82;20333;-76
2021/09/24 10:15:16;;;;;;;;;;;;;;;17.46;49.22;100832.12;1740336;82;20563;-76
2021/09/24 10:17:48;;;;;;;;;;;;;;;17.44;49.18;100825.95;1739711;82;20298;-77
2021/09/24 10:20:21;;;;;;;;;;;;;;;17.35;49.24;100824.09;1740977;82;20190;-76
2021/09/24 10:22:52;;;;;;;;;;;;;;;17.33;49.30;100825.81;1743914;82;20174;-77
2021/09/24 10:25:24;;;;;;;;;;;;;;;17.33;49.27;100825.81;1744167;82;20288;-78
2021/09/24 10:27:55;;;;;;;;;;;;;;;17.29;49.20;100816.87;1744231;82;20678;-77
2021/09/24 10:30:30;;;;;;;;;;;;;;;17.25;49.28;100819.45;1746197;82;20250;-76
2021/09/24 10:33:04;;;;;;;;;;;;;;;17.27;49.34;100821.97;1722898;82;20253;-76
2021/09/24 10:35:47;;;;;;;;;;;;;;;17.32;49.39;100817.10;1743763;82;20294;-75
2021/09/24 10:38:21;;;;;;;;;;;;;;;17.34;49.36;100819.61;1743832;82;20610;-75
2021/09/24 10:41:05;;;;;;;;;;;;;;;17.32;49.38;100826.92;1743840;82;20190;-77
2021/09/24 10:43:48;;;;;;;;;;;;;;;17.31;49.13;100814.62;1744011;82;20596;-77
2021/09/24 10:46:32;;;;;;;;;;;;;;;17.27;48.94;100810.73;1720937;82;20262;-77
2021/09/24 10:49:26;;;;;;;;;;;;;;;17.19;49.09;100801.01;1744044;82;20258;-76
2021/09/24 10:52:08;;;;;;;;;;;;;;;17.11;49.25;100809.27;1743588;82;20190;-77
2021/09/24 10:54:58;;;;;;;;;;;;;;;17.05;49.55;100805.70;1722416;82;20190;-78
2021/09/24 10:57:36;;;;;;;;;;;;;;;17.03;49.80;100800.12;1743930;82;20673;-78
2021/09/24 11:00:25;;;;;;;;;;;;;;;16.95;50.07;100806.41;1714218;83;20186;-76
2021/09/24 11:03:14;;;;;;;;;;;;;;;16.97;50.11;100807.78;1721577;83;20531;-78
2021/09/24 11:06:08;;;;;;;;;;;;;;;16.98;50.05;100808.04;1744036;82;20222;-79
2021/09/24 11:08:42;;;;;;;;;;;;;;;17.00;49.93;100811.37;1743940;82;20181;-76
2021/09/24 11:11:22;;;;;;;;;;;;;;;17.01;50.11;100817.83;1745277;82;20262;-76
2021/09/24 11:13:58;;;;;;;;;;;;;;;17.01;50.48;100814.44;1744918;82;20292;-75
2021/09/24 11:16:48;;;;;;;;;;;;;;;16.99;50.68;100819.52;1744404;82;20238;-77
2021/09/24 11:19:43;;;;;;;;;;;;;;;17.05;50.82;100822.53;1751085;80;20260;-75
2021/09/24 11:22:35;;;;;;;;;;;;;;;17.09;51.12;100831.19;1729432;82;20192;-76
2021/09/24 11:25:08;;;;;;;;;;;;;;;17.11;51.50;100835.36;1744325;81;20256;-75
2021/09/24 11:27:45;;;;;;;;;;;;;;;17.06;52.13;100827.00;1713028;82;20321;-77
2021/09/24 11:30:19;;;;;;;;;;;;;;;16.98;52.62;100827.68;1701129;84;20563;-75
2021/09/24 11:32:54;;;;;;;;;;;;;;;16.86;53.59;100824.45;1727156;82;20201;-74
2021/09/24 11:35:39;;;;;;;;;;;;;;;16.63;54.28;100830.08;1740224;82;20219;-75
2021/09/24 11:38:18;;;;;;;;;;;;;;;16.34;55.49;100825.83;1743510;81;20668;-76
2021/09/24 11:40:54;;;;;;;;;;;;;;;16.12;57.10;100826.63;1741356;81;20214;-74
2021/09/24 11:43:31;;;;;;;;;;;;;;;15.85;57.40;100820.13;1729951;82;20259;-75
2021/09/24 11:46:05;;;;;;;;;;;;;;;15.63;58.08;100830.11;1718414;82;20254;-72
2021/09/24 11:48:37;;;;;;;;;;;;;;;15.47;59.21;100841.11;1754019;81;20547;-72
2021/09/24 11:51:17;;;;;;;;;;;;;;;15.34;59.87;100841.75;1758088;81;20734;-74
2021/09/24 11:53:50;;;;;;;;;;;;;;;15.26;60.87;100849.30;1693827;82;20611;-75
2021/09/24 11:56:23;;;;;;;;;;;;;;;15.19;61.70;100848.23;1723200;81;20262;-76
2021/09/24 11:59:08;;;;;;;;;;;;;;;15.14;62.20;100844.05;1676537;82;20675;-76
2021/09/24 12:01:41;;;;;;;;;;;;;;;15.13;63.05;100849.38;1739551;82;20674;-74
2021/09/24 12:04:14;;;;;;;;;;;;;;;15.11;63.83;100840.44;1733256;81;20243;-76
2021/09/24 12:06:45;;;;;;;;;;;;;;;15.05;64.24;100847.19;1721835;82;20266;-74
2021/09/24 12:09:17;;;;;;;;;;;;;;;15.01;64.82;100839.08;1745062;82;20246;-73
2021/09/24 12:11:49;;;;;;;;;;;;;;;14.99;65.36;100840.48;1741661;82;20309;-76
2021/09/24 12:14:22;;;;;;;;;;;;;;;14.95;65.94;100834.63;1740881;82;20249;-75
2021/09/24 12:16:53;;;;;;;;;;;;;;;14.98;66.44;100848.02;1747764;81;20337;-73
2021/09/24 12:19:26;;;;;;;;;;;;;;;15.03;66.89;100848.02;1744615;82;20566;-74
2021/09/24 12:22:02;;;;;;;;;;;;;;;15.03;67.31;100852.20;1748480;81;20293;-74
2021/09/24 12:24:37;;;;;;;;;;;;;;;14.99;67.55;100849.72;1751874;79;20194;-75
2021/09/24 12:27:13;;;;;;;;;;;;;;;14.95;67.99;100851.41;1700366;83;20289;-74
2021/09/24 12:29:48;;;;;;;;;;;;;;;14.94;68.51;100850.29;1711206;83;20269;-77
2021/09/24 12:32:24;;;;;;;;;;;;;;;14.97;69.00;100854.74;1709933;83;20256;-73
2021/09/24 12:35:01;;;;;;;;;;;;;;;15.03;68.78;100859.20;1705027;83;21189;-84
2021/09/24 12:37:47;;;;;;;;;;;;;;;15.15;68.86;100849.91;1711025;83;20251;-74
2021/09/24 12:40:16;;;;;;;;;;;;;;;15.22;68.88;100849.62;1718398;82;20180;-82
2021/09/24 12:42:56;;;;;;;;;;;;;;;15.29;69.08;100852.94;1749016;80;20300;-82
2021/09/24 12:45:31;;;;;;;;;;;;;;;15.31;69.34;100841.73;1714918;84;20635;-81
2021/09/24 12:48:16;;;;;;;;;;;;;;;15.33;69.43;100835.89;1698516;84;20309;-78
2021/09/24 12:50:48;;;;;;;;;;;;;;;15.33;69.71;100819.92;1695545;84;20180;-78
2021/09/24 12:53:19;;;;;;;;;;;;;;;15.28;69.95;100804.52;1707168;79;20205;-77
2021/09/24 12:55:51;;;;;;;;;;;;;;;15.22;70.17;100778.28;1817846;79;20257;-72
2021/09/24 12:58:25;;;;;;;;;;;;;;;15.19;70.29;100763.45;1817199;78;20383;-73
2021/09/24 13:00:58;;;;;;;;;;;;;;;15.08;70.46;100761.29;1821946;78;20651;-72
2021/09/24 13:03:31;;;;;;;;;;;;;;;14.89;70.71;100758.03;1818872;78;20243;-73
2021/09/24 13:06:03;;;;;;;;;;;;;;;14.67;71.29;100764.00;1810776;78;20602;-72
2021/09/24 13:08:35;;;;;;;;;;;;;;;14.50;72.03;100788.68;1814176;78;20272;-72